Time;durP1;ratioP1;P1;durP2;ratioP2;P2;SDS_P1;SDS_P2;PMS_P1;PMS_P2;Temp;Humidity;BMP_temperature;BMP_pressure;BME280_temperature;BME280_humidity;BME280_pressure;Samples;Min_cycle;Max_cycle;Signal;HPM_P1;HPM_P2
2023/08/25 00:01:54;;;;;;;;;;;;;;;29.06;100.00;99442.91;4933445;29;19923;-72
2023/08/25 00:04:19;;;;;;;;;;;;;;;29.03;100.00;99452.44;4933837;29;19922;-72
2023/08/25 00:06:44;;;;;;;;;;;;;;;29.03;100.00;99455.16;4933525;29;19923;-72
2023/08/25 00:09:10;;;;;;;;;;;;;;;28.95;100.00;99446.69;4933200;29;19923;-72
2023/08/25 00:11:37;;;;;;;;;;;;;;;28.98;100.00;99448.88;4933639;29;19926;-71
2023/08/25 00:14:02;;;;;;;;;;;;;;;28.94;100.00;99445.03;4933383;29;20291;-71
2023/08/25 00:16:28;;;;;;;;;;;;;;;28.95;100.00;99446.69;4933555;29;20288;-71
2023/08/25 00:18:53;;;;;;;;;;;;;;;28.86;100.00;99449.09;4933205;29;19986;-71
2023/08/25 00:21:19;;;;;;;;;;;;;;;28.84;100.00;99441.22;4948174;28;20356;-71
2023/08/25 00:23:44;;;;;;;;;;;;;;;28.89;100.00;99438.50;4934307;29;19919;-72
2023/08/25 00:26:09;;;;;;;;;;;;;;;28.86;100.00;99433.59;4933859;29;20443;-71
2023/08/25 00:28:35;;;;;;;;;;;;;;;28.78;100.00;99436.84;4936309;28;19926;-72
2023/08/25 00:31:00;;;;;;;;;;;;;;;28.58;100.00;99431.25;4937070;29;19919;-71
2023/08/25 00:33:25;;;;;;;;;;;;;;;28.48;100.00;99431.19;4952072;29;20390;-71
2023/08/25 00:35:51;;;;;;;;;;;;;;;28.50;100.00;99431.75;4936866;29;19926;-72
2023/08/25 00:38:16;;;;;;;;;;;;;;;28.53;100.00;99444.81;4937182;29;19962;-72
2023/08/25 00:40:41;;;;;;;;;;;;;;;28.52;100.00;99437.72;4951460;29;19923;-71
2023/08/25 00:43:07;;;;;;;;;;;;;;;28.58;100.00;99436.69;4937165;29;20007;-72
2023/08/25 00:45:35;;;;;;;;;;;;;;;28.41;100.00;99438.75;4951918;28;20287;-72
2023/08/25 00:48:00;;;;;;;;;;;;;;;28.36;100.00;99441.44;4951652;28;20095;-72
2023/08/25 00:50:28;;;;;;;;;;;;;;;28.40;100.00;99440.66;4937188;29;19978;-72
2023/08/25 00:52:53;;;;;;;;;;;;;;;28.48;100.00;99442.06;4936848;29;19930;-73
2023/08/25 00:55:19;;;;;;;;;;;;;;;28.52;100.00;99443.16;4936816;29;19923;-73
2023/08/25 00:57:44;;;;;;;;;;;;;;;28.50;100.00;99439.91;4934706;29;20704;-73
2023/08/25 01:00:11;;;;;;;;;;;;;;;28.53;100.00;99444.81;4934764;29;20315;-73
2023/08/25 01:02:36;;;;;;;;;;;;;;;28.56;100.00;99441.56;4949458;28;19930;-73
2023/08/25 01:05:03;;;;;;;;;;;;;;;28.59;100.00;99442.94;4935987;29;19927;-73
2023/08/25 01:07:28;;;;;;;;;;;;;;;28.57;100.00;99445.91;4937197;29;20005;-73
2023/08/25 01:09:54;;;;;;;;;;;;;;;28.52;100.00;99443.16;4936710;29;20018;-73
2023/08/25 01:12:30;;;;;;;;;;;;;;;28.55;100.00;99439.94;4937049;29;19930;-72
2023/08/25 01:15:12;;;;;;;;;;;;;;;28.60;100.00;99439.97;4936762;29;19930;-72
2023/08/25 01:17:43;;;;;;;;;;;;;;;28.52;100.00;99443.16;4936915;29;20013;-72
2023/08/25 01:20:09;;;;;;;;;;;;;;;28.42;100.00;99440.38;4951481;28;19923;-72
2023/08/25 01:22:44;;;;;;;;;;;;;;;28.32;100.00;99446.59;4936950;29;19923;-72
2023/08/25 01:25:17;;;;;;;;;;;;;;;28.17;100.00;99441.03;4936934;29;20276;-72
2023/08/25 01:27:43;;;;;;;;;;;;;;;28.16;100.00;99441.31;4935106;29;19930;-73
2023/08/25 01:30:08;;;;;;;;;;;;;;;28.09;100.00;99430.66;4936698;29;19929;-73
2023/08/25 01:32:37;;;;;;;;;;;;;;;28.08;100.00;99440.69;4936996;29;19923;-73
2023/08/25 01:35:04;;;;;;;;;;;;;;;28.13;100.00;99428.22;4950928;28;19977;-72
2023/08/25 01:37:32;;;;;;;;;;;;;;;28.09;100.00;99434.19;4936773;28;19923;-72
2023/08/25 01:40:04;;;;;;;;;;;;;;;28.05;100.00;99432.22;4949294;28;19927;-73
2023/08/25 01:42:31;;;;;;;;;;;;;;;27.98;100.00;99431.66;4937314;29;19953;-73
2023/08/25 01:44:57;;;;;;;;;;;;;;;27.92;100.00;99436.19;4936036;29;20240;-73
2023/08/25 01:47:24;;;;;;;;;;;;;;;27.91;100.00;99437.28;4934954;29;19926;-73
2023/08/25 01:49:51;;;;;;;;;;;;;;;27.99;100.00;99428.66;4936115;29;19923;-72
2023/08/25 01:52:19;;;;;;;;;;;;;;;27.99;100.00;99430.53;4936191;29;19923;-71
2023/08/25 01:54:44;;;;;;;;;;;;;;;28.06;100.00;99437.38;4935481;28;19919;-71
2023/08/25 01:57:10;;;;;;;;;;;;;;;28.04;100.00;99430.56;4935774;29;19938;-71
2023/08/25 01:59:35;;;;;;;;;;;;;;;28.07;100.00;99427.38;4934639;29;19966;-71
2023/08/25 02:02:00;;;;;;;;;;;;;;;28.05;100.00;99427.63;4950118;28;19922;-71
2023/08/25 02:04:26;;;;;;;;;;;;;;;28.04;100.00;99425.97;4950475;29;19966;-71
2023/08/25 02:06:51;;;;;;;;;;;;;;;28.01;100.00;99426.50;4935817;29;20036;-71
2023/08/25 02:09:16;;;;;;;;;;;;;;;27.90;100.00;99424.78;4935586;29;19922;-71
2023/08/25 02:11:42;;;;;;;;;;;;;;;27.91;100.00;99426.44;4935494;29;19966;-72
2023/08/25 02:14:17;;;;;;;;;;;;;;;27.88;100.00;99420.69;4935741;29;19923;-72
2023/08/25 02:16:42;;;;;;;;;;;;;;;27.83;100.00;99428.78;4950000;28;19978;-71
2023/08/25 02:19:09;;;;;;;;;;;;;;;27.68;100.00;99427.59;4935472;29;19923;-71
2023/08/25 02:21:34;;;;;;;;;;;;;;;27.72;100.00;99421.66;4934208;29;19930;-71
2023/08/25 02:24:00;;;;;;;;;;;;;;;27.58;100.00;99421.22;4937458;29;19927;-71
2023/08/25 02:26:25;;;;;;;;;;;;;;;27.47;100.00;99419.47;4950028;29;19926;-71
2023/08/25 02:28:53;;;;;;;;;;;;;;;27.43;100.00;99416.47;4935002;29;19929;-72
2023/08/25 02:31:18;;;;;;;;;;;;;;;27.46;100.00;99417.81;4935404;29;19934;-72
2023/08/25 02:33:45;;;;;;;;;;;;;;;27.39;100.00;99412.59;4934955;29;20009;-71
2023/08/25 02:36:10;;;;;;;;;;;;;;;27.41;100.00;99420.50;4950013;28;20006;-72
2023/08/25 02:38:35;;;;;;;;;;;;;;;27.38;100.00;99421.84;4935124;29;20421;-72
2023/08/25 02:41:01;;;;;;;;;;;;;;;27.35;100.00;99427.75;4934619;29;20058;-72
2023/08/25 02:43:26;;;;;;;;;;;;;;;27.36;100.00;99417.72;4935276;29;19919;-72
2023/08/25 02:45:51;;;;;;;;;;;;;;;27.33;100.00;99419.06;4934781;29;19922;-72
2023/08/25 02:48:17;;;;;;;;;;;;;;;27.40;100.00;99426.97;4935118;29;19994;-72
2023/08/25 02:50:45;;;;;;;;;;;;;;;27.40;100.00;99435.09;4948958;28;20291;-72
2023/08/25 02:53:10;;;;;;;;;;;;;;;27.38;100.00;99437.28;4937220;29;19929;-72
2023/08/25 02:55:35;;;;;;;;;;;;;;;27.39;100.00;99441.63;4949321;29;19927;-72
2023/08/25 02:58:01;;;;;;;;;;;;;;;27.25;100.00;99431.19;4933064;29;19922;-72
2023/08/25 03:00:26;;;;;;;;;;;;;;;27.05;100.00;99430.94;4949419;28;19923;-72
2023/08/25 03:02:53;;;;;;;;;;;;;;;27.00;100.00;99430.88;4949068;28;19922;-72
2023/08/25 03:05:21;;;;;;;;;;;;;;;27.02;100.00;99434.16;4934834;29;19970;-73
2023/08/25 03:07:46;;;;;;;;;;;;;;;27.07;100.00;99426.09;4949077;28;20273;-71
2023/08/25 03:10:12;;;;;;;;;;;;;;;27.14;100.00;99432.13;4948855;28;19918;-71
2023/08/25 03:12:38;;;;;;;;;;;;;;;27.13;100.00;99425.09;4949094;29;20376;-71
2023/08/25 03:15:06;;;;;;;;;;;;;;;27.18;100.00;99432.44;4949006;28;19934;-71
2023/08/25 03:17:31;;;;;;;;;;;;;;;27.21;100.00;99427.34;4949078;28;20005;-71
2023/08/25 03:19:59;;;;;;;;;;;;;;;27.25;100.00;99428.47;4948908;28;20014;-71
2023/08/25 03:22:24;;;;;;;;;;;;;;;27.20;100.00;99427.59;4948915;29;20018;-72
2023/08/25 03:24:49;;;;;;;;;;;;;;;27.19;100.00;99428.66;4953158;28;20029;-72
2023/08/25 03:27:15;;;;;;;;;;;;;;;27.22;100.00;99428.13;4945076;29;19927;-72
2023/08/25 03:29:43;;;;;;;;;;;;;;;27.20;100.00;99431.13;4948552;28;19954;-72
2023/08/25 03:32:08;;;;;;;;;;;;;;;27.20;100.00;99425.72;4934280;29;20303;-72
2023/08/25 03:34:33;;;;;;;;;;;;;;;27.06;100.00;99424.44;4934041;29;19926;-72
2023/08/25 03:36:59;;;;;;;;;;;;;;;26.93;100.00;99416.69;4948434;29;19942;-71
2023/08/25 03:39:26;;;;;;;;;;;;;;;26.76;100.00;99419.44;4948327;28;20368;-71
2023/08/25 03:41:52;;;;;;;;;;;;;;;26.64;100.00;99426.03;4948465;29;19962;-72
2023/08/25 03:44:17;;;;;;;;;;;;;;;26.41;100.00;99425.19;4948869;29;19923;-71
2023/08/25 03:46:42;;;;;;;;;;;;;;;26.41;100.00;99417.06;4948255;28;19927;-73
2023/08/25 03:49:09;;;;;;;;;;;;;;;26.35;100.00;99418.06;4948660;29;20053;-72
2023/08/25 03:51:34;;;;;;;;;;;;;;;26.39;100.00;99419.19;4934092;29;19923;-73
2023/08/25 03:54:00;;;;;;;;;;;;;;;26.43;100.00;99414.94;4949981;28;19926;-72
2023/08/25 03:56:25;;;;;;;;;;;;;;;26.43;100.00;99414.94;4933979;29;19927;-72
2023/08/25 03:58:51;;;;;;;;;;;;;;;26.41;100.00;99406.25;4948293;28;20293;-72
2023/08/25 04:01:16;;;;;;;;;;;;;;;26.40;100.00;99399.19;4933936;29;20394;-72
2023/08/25 04:03:41;;;;;;;;;;;;;;;26.35;100.00;99401.00;4933024;29;19942;-72
2023/08/25 04:06:07;;;;;;;;;;;;;;;26.29;100.00;99402.84;4948454;28;20291;-72
2023/08/25 04:08:32;;;;;;;;;;;;;;;26.21;100.00;99400.53;4948584;29;20287;-72
2023/08/25 04:10:58;;;;;;;;;;;;;;;26.07;100.00;99397.34;4949846;28;20233;-72
2023/08/25 04:13:23;;;;;;;;;;;;;;;26.16;100.00;99392.31;4933440;29;19965;-72
2023/08/25 04:15:56;;;;;;;;;;;;;;;26.19;100.00;99391.84;4932176;29;19922;-72
2023/08/25 04:18:22;;;;;;;;;;;;;;;26.19;100.00;99397.25;4929547;29;20065;-72
2023/08/25 04:20:48;;;;;;;;;;;;;;;26.18;100.00;99390.19;4933378;29;19958;-72
2023/08/25 04:23:13;;;;;;;;;;;;;;;26.16;100.00;99397.72;4932516;29;19923;-72
2023/08/25 04:25:39;;;;;;;;;;;;;;;26.16;100.00;99403.13;4949199;28;19930;-72
2023/08/25 04:28:04;;;;;;;;;;;;;;;26.15;100.00;99396.13;4947848;28;19927;-72
2023/08/25 04:30:30;;;;;;;;;;;;;;;26.22;100.00;99399.44;4933585;29;19922;-72
2023/08/25 04:32:59;;;;;;;;;;;;;;;26.23;100.00;99395.72;4947964;29;20017;-73
2023/08/25 04:35:26;;;;;;;;;;;;;;;26.16;100.00;99403.13;4948289;28;19934;-73
2023/08/25 04:37:53;;;;;;;;;;;;;;;26.18;100.00;99411.84;4947926;28;19922;-73
2023/08/25 04:40:19;;;;;;;;;;;;;;;26.18;100.00;99409.13;4933463;29;19922;-73
2023/08/25 04:42:44;;;;;;;;;;;;;;;26.19;100.00;99408.06;4931968;29;19954;-74
2023/08/25 04:45:10;;;;;;;;;;;;;;;26.20;100.00;99404.31;4933527;29;19931;-74
2023/08/25 04:47:36;;;;;;;;;;;;;;;26.23;100.00;99403.81;4948125;28;19927;-73
2023/08/25 04:50:03;;;;;;;;;;;;;;;26.20;100.00;99404.31;4947553;28;19974;-73
2023/08/25 04:52:33;;;;;;;;;;;;;;;26.21;100.00;99405.94;4931930;29;19970;-74
2023/08/25 04:54:58;;;;;;;;;;;;;;;26.25;100.00;99407.09;4934266;29;20030;-74
2023/08/25 04:57:24;;;;;;;;;;;;;;;26.22;100.00;99406.72;4932868;29;19999;-72
2023/08/25 04:59:49;;;;;;;;;;;;;;;26.26;100.00;99407.94;4931319;29;19923;-72
2023/08/25 05:02:15;;;;;;;;;;;;;;;26.27;100.00;99404.94;4943883;28;20269;-72
2023/08/25 05:04:41;;;;;;;;;;;;;;;26.23;100.00;99409.22;4943909;29;20079;-72
2023/08/25 05:07:07;;;;;;;;;;;;;;;26.24;100.00;99416.28;4929211;29;19963;-72
2023/08/25 05:09:34;;;;;;;;;;;;;;;26.29;100.00;99396.59;4946689;29;19977;-71
2023/08/25 05:11:59;;;;;;;;;;;;;;;26.23;100.00;99402.97;4939457;28;20691;-71
2023/08/25 05:14:25;;;;;;;;;;;;;;;26.09;100.00;99407.91;4922640;29;20013;-70
2023/08/25 05:16:51;;;;;;;;;;;;;;;26.05;100.00;99412.16;4911704;29;19919;-71
2023/08/25 05:19:25;;;;;;;;;;;;;;;26.04;100.00;99415.94;4923504;29;19923;-71
2023/08/25 05:21:51;;;;;;;;;;;;;;;25.95;100.00;99417.41;4915240;29;19922;-71
2023/08/25 05:24:35;;;;;;;;;;;;;;;25.92;100.00;99418.72;4929191;29;19923;-72
2023/08/25 05:27:00;;;;;;;;;;;;;;;26.01;100.00;99424.53;4928496;29;19927;-73
2023/08/25 05:29:26;;;;;;;;;;;;;;;26.03;100.00;99425.94;4924305;29;19978;-73
2023/08/25 05:31:54;;;;;;;;;;;;;;;26.03;100.00;99433.25;4926804;29;19922;-73
2023/08/25 05:34:39;;;;;;;;;;;;;;;26.08;100.00;99434.13;4926545;29;19923;-74
2023/08/25 05:37:08;;;;;;;;;;;;;;;26.02;100.00;99434.31;4925013;29;20013;-73
2023/08/25 05:39:33;;;;;;;;;;;;;;;26.04;100.00;99440.25;4925348;29;20017;-71
2023/08/25 05:41:58;;;;;;;;;;;;;;;26.03;100.00;99436.75;4923716;29;19922;-71
2023/08/25 05:44:26;;;;;;;;;;;;;;;26.00;100.00;99441.81;4922402;29;19923;-72
2023/08/25 05:46:52;;;;;;;;;;;;;;;26.02;100.00;99451.34;4930115;29;20375;-70
2023/08/25 05:49:18;;;;;;;;;;;;;;;26.06;100.00;99452.47;4925702;29;19926;-72
2023/08/25 05:51:44;;;;;;;;;;;;;;;26.06;100.00;99447.06;4930733;29;19923;-71
2023/08/25 05:54:10;;;;;;;;;;;;;;;26.02;100.00;99459.47;4926550;29;19931;-71
2023/08/25 05:56:35;;;;;;;;;;;;;;;26.03;100.00;99462.97;4928375;29;19923;-70
2023/08/25 05:59:01;;;;;;;;;;;;;;;26.07;100.00;99469.53;4923956;29;19927;-74
2023/08/25 06:01:26;;;;;;;;;;;;;;;26.02;100.00;99472.16;4925121;29;19994;-73
2023/08/25 06:03:51;;;;;;;;;;;;;;;26.10;100.00;99469.03;4925324;29;19927;-73
2023/08/25 06:06:17;;;;;;;;;;;;;;;26.17;100.00;99469.69;4924904;29;19994;-73
2023/08/25 06:08:42;;;;;;;;;;;;;;;26.21;100.00;99470.84;4926975;29;19986;-73
2023/08/25 06:11:07;;;;;;;;;;;;;;;26.31;100.00;99475.63;4925072;29;19923;-72
2023/08/25 06:13:33;;;;;;;;;;;;;;;26.32;100.00;99472.69;4927064;29;19923;-73
2023/08/25 06:15:58;;;;;;;;;;;;;;;26.25;100.00;99480.13;4926353;29;19933;-76
2023/08/25 06:18:24;;;;;;;;;;;;;;;26.10;100.00;99485.25;4926635;29;20356;-74
2023/08/25 06:20:50;;;;;;;;;;;;;;;26.14;100.00;99485.59;4927758;29;19929;-74
2023/08/25 06:23:16;;;;;;;;;;;;;;;26.13;100.00;99475.84;4924171;29;19927;-78
2023/08/25 06:25:41;;;;;;;;;;;;;;;26.25;100.00;99480.13;4927123;29;19931;-74
2023/08/25 06:28:06;;;;;;;;;;;;;;;26.27;100.00;99475.28;4924131;29;19923;-74
2023/08/25 06:30:32;;;;;;;;;;;;;;;26.32;100.00;99472.69;4925736;29;19923;-74
2023/08/25 06:32:58;;;;;;;;;;;;;;;26.35;100.00;99477.59;4925786;29;20310;-74
2023/08/25 06:35:23;;;;;;;;;;;;;;;26.49;100.00;99467.25;4924225;29;20377;-73
2023/08/25 06:37:49;;;;;;;;;;;;;;;26.58;100.00;99467.63;4926779;29;19923;-74
2023/08/25 06:40:14;;;;;;;;;;;;;;;26.63;100.00;99467.69;4923595;29;19970;-74
2023/08/25 06:42:40;;;;;;;;;;;;;;;26.70;100.00;99479.19;4926045;29;19931;-74
2023/08/25 06:45:05;;;;;;;;;;;;;;;26.74;100.00;99483.84;4924874;29;19958;-74
2023/08/25 06:47:31;;;;;;;;;;;;;;;26.80;100.00;99485.53;4927457;29;19923;-74
2023/08/25 06:49:57;;;;;;;;;;;;;;;26.85;100.00;99476.69;4925513;29;19923;-74
2023/08/25 06:52:22;;;;;;;;;;;;;;;26.88;100.00;99481.63;4923943;29;19927;-75
2023/08/25 06:54:47;;;;;;;;;;;;;;;26.98;100.00;99487.16;4926132;29;19955;-75
2023/08/25 06:57:13;;;;;;;;;;;;;;;27.03;100.00;99481.03;4923167;29;19927;-73
2023/08/25 06:59:38;;;;;;;;;;;;;;;27.02;100.00;99480.19;4924497;29;20061;-74
2023/08/25 07:02:04;;;;;;;;;;;;;;;27.07;100.00;99482.97;4924515;29;19923;-73
2023/08/25 07:04:29;;;;;;;;;;;;;;;27.18;100.00;99479.31;4925866;29;20013;-73
2023/08/25 07:06:55;;;;;;;;;;;;;;;27.25;100.00;99474.53;4922758;29;19927;-74
2023/08/25 07:09:20;;;;;;;;;;;;;;;27.35;100.00;99475.69;4922952;29;19930;-74
2023/08/25 07:11:45;;;;;;;;;;;;;;;27.42;100.00;99474.44;4925385;29;19927;-73
2023/08/25 07:14:11;;;;;;;;;;;;;;;27.46;100.00;99464.72;4923172;29;20765;-74
2023/08/25 07:16:36;;;;;;;;;;;;;;;27.55;100.00;99460.53;4924752;29;19923;-73
2023/08/25 07:19:01;;;;;;;;;;;;;;;27.66;100.00;99456.03;4926785;29;19930;-74
2023/08/25 07:21:26;;;;;;;;;;;;;;;27.75;100.00;99454.47;4923540;29;20014;-74
2023/08/25 07:23:52;;;;;;;;;;;;;;;27.80;100.00;99456.44;4925311;29;19923;-73
2023/08/25 07:26:17;;;;;;;;;;;;;;;27.83;100.00;99459.44;4923152;29;19924;-73
2023/08/25 07:28:42;;;;;;;;;;;;;;;27.88;100.00;99459.47;4925211;29;20344;-74
2023/08/25 07:31:08;;;;;;;;;;;;;;;27.94;100.00;99457.63;4923258;29;20285;-73
2023/08/25 07:33:33;;;;;;;;;;;;;;;27.99;100.00;99444.09;4924012;29;19947;-72
2023/08/25 07:35:59;;;;;;;;;;;;;;;28.06;100.00;99450.97;4925508;29;19934;-73
2023/08/25 07:38:24;;;;;;;;;;;;;;;28.16;100.00;99449.44;4922982;29;19923;-73
2023/08/25 07:40:50;;;;;;;;;;;;;;;28.21;100.00;99434.03;4925981;29;19969;-73
2023/08/25 07:43:15;;;;;;;;;;;;;;;28.29;100.00;99444.38;4922524;29;19949;-74
2023/08/25 07:45:41;;;;;;;;;;;;;;;28.32;100.00;99434.91;4925421;29;19930;-73
2023/08/25 07:48:06;;;;;;;;;;;;;;;28.34;100.00;99430.84;4908823;29;19923;-74
2023/08/25 07:50:32;;;;;;;;;;;;;;;28.39;100.00;99433.56;4924491;29;20372;-73
2023/08/25 07:52:57;;;;;;;;;;;;;;;28.49;100.00;99438.28;4925149;29;19930;-74
2023/08/25 07:55:23;;;;;;;;;;;;;;;28.60;100.00;99433.72;4922335;29;19933;-74
2023/08/25 07:57:48;;;;;;;;;;;;;;;28.66;100.00;99427.22;4920879;29;19950;-74
2023/08/25 08:00:15;;;;;;;;;;;;;;;28.73;100.00;99428.66;4922983;29;19970;-73
2023/08/25 08:02:44;;;;;;;;;;;;;;;28.80;100.00;99434.69;4923065;29;19931;-73
2023/08/25 08:05:10;;;;;;;;;;;;;;;28.82;100.00;99427.06;4924677;29;20300;-74
2023/08/25 08:07:36;;;;;;;;;;;;;;;28.80;100.00;99421.09;4924334;29;19931;-74
2023/08/25 08:10:03;;;;;;;;;;;;;;;28.81;100.00;99425.44;4922508;29;19933;-75
2023/08/25 08:12:28;;;;;;;;;;;;;;;28.83;100.00;99420.56;4929117;28;19974;-74
2023/08/25 08:14:54;;;;;;;;;;;;;;;28.92;100.00;99418.16;4932919;29;19930;-75
2023/08/25 08:17:19;;;;;;;;;;;;;;;28.98;100.00;99419.81;4933360;29;19962;-75
2023/08/25 08:19:45;;;;;;;;;;;;;;;28.98;100.00;99413.56;4934731;29;19930;-74
2023/08/25 08:22:10;;;;;;;;;;;;;;;29.02;100.00;99417.38;4933154;29;21428;-76
2023/08/25 08:24:36;;;;;;;;;;;;;;;29.10;100.00;99428.53;4933684;29;19966;-74
2023/08/25 08:27:02;;;;;;;;;;;;;;;29.19;100.00;99420.69;4933139;28;19969;-74
2023/08/25 08:29:28;;;;;;;;;;;;;;;29.27;100.00;99428.34;4947785;28;19961;-74
2023/08/25 08:31:55;;;;;;;;;;;;;;;29.34;100.00;99434.34;4932705;29;20287;-74
2023/08/25 08:34:20;;;;;;;;;;;;;;;29.36;100.00;99426.75;4933223;29;19958;-76
2023/08/25 08:36:47;;;;;;;;;;;;;;;29.37;100.00;99425.66;4929081;29;20000;-74
2023/08/25 08:39:13;;;;;;;;;;;;;;;29.41;100.00;99418.59;4933050;29;19931;-73
2023/08/25 08:41:39;;;;;;;;;;;;;;;29.41;100.00;99413.16;4934481;29;19922;-75
2023/08/25 08:44:05;;;;;;;;;;;;;;;29.45;100.00;99417.00;4932868;29;19919;-75
2023/08/25 08:46:31;;;;;;;;;;;;;;;29.49;100.00;99414.53;4932772;29;20013;-73
2023/08/25 08:48:57;;;;;;;;;;;;;;;29.57;100.00;99414.81;4945979;28;20394;-73
2023/08/25 08:51:23;;;;;;;;;;;;;;;29.59;100.00;99420.81;4937251;29;20011;-73
2023/08/25 08:53:50;;;;;;;;;;;;;;;29.63;100.00;99411.00;4938384;29;19962;-74
2023/08/25 08:56:16;;;;;;;;;;;;;;;29.63;100.00;99411.00;4937118;29;19925;-74
2023/08/25 08:58:42;;;;;;;;;;;;;;;29.66;100.00;99410.47;4952221;29;20029;-75
2023/08/25 09:01:09;;;;;;;;;;;;;;;29.75;100.00;99401.81;4938524;29;19923;-72
2023/08/25 09:03:37;;;;;;;;;;;;;;;29.83;100.00;99403.97;4936486;29;19923;-73
2023/08/25 09:06:03;;;;;;;;;;;;;;;29.96;100.00;99408.88;4937851;29;19980;-72
2023/08/25 09:08:28;;;;;;;;;;;;;;;30.15;98.09;99411.88;4936639;29;19923;-73
2023/08/25 09:10:54;;;;;;;;;;;;;;;30.26;98.12;99410.75;4938109;29;19923;-73
2023/08/25 09:13:19;;;;;;;;;;;;;;;30.34;96.62;99411.00;4928982;29;19923;-73
2023/08/25 09:15:45;;;;;;;;;;;;;;;30.43;95.91;99414.81;4929917;29;19980;-73
2023/08/25 09:18:10;;;;;;;;;;;;;;;30.52;95.63;99418.63;4925468;29;20376;-72
2023/08/25 09:20:38;;;;;;;;;;;;;;;30.70;90.24;99408.22;4927512;29;19927;-74
2023/08/25 09:23:04;;;;;;;;;;;;;;;30.75;91.89;99410.94;4926653;29;19934;-72
2023/08/25 09:25:29;;;;;;;;;;;;;;;30.84;88.88;99414.72;4926183;29;20304;-72
2023/08/25 09:27:56;;;;;;;;;;;;;;;30.90;89.29;99419.06;4927655;29;19930;-73
2023/08/25 09:30:32;;;;;;;;;;;;;;;30.97;87.28;99408.69;4926322;29;19923;-72
2023/08/25 09:33:01;;;;;;;;;;;;;;;30.97;88.45;99405.13;4926536;29;19933;-73
2023/08/25 09:35:28;;;;;;;;;;;;;;;31.02;87.77;99400.47;4925987;29;19928;-73
2023/08/25 09:37:53;;;;;;;;;;;;;;;31.06;88.35;99400.75;4909977;29;19927;-74
2023/08/25 09:40:18;;;;;;;;;;;;;;;31.13;87.81;99396.63;4928131;29;19922;-73
2023/08/25 09:42:44;;;;;;;;;;;;;;;31.22;87.19;99391.41;4924365;29;19923;-73
2023/08/25 09:45:13;;;;;;;;;;;;;;;31.29;86.04;99384.53;4927546;29;20023;-72
2023/08/25 09:47:41;;;;;;;;;;;;;;;31.35;85.61;99387.22;4927060;29;20113;-74
2023/08/25 09:50:07;;;;;;;;;;;;;;;31.40;85.31;99384.47;4926184;29;19950;-73
2023/08/25 09:52:34;;;;;;;;;;;;;;;31.44;84.42;99377.34;4925565;29;19923;-74
2023/08/25 09:55:00;;;;;;;;;;;;;;;31.47;84.28;99374.03;4907619;29;19995;-73
2023/08/25 09:57:25;;;;;;;;;;;;;;;31.48;83.97;99376.50;4908183;29;19975;-74
2023/08/25 09:59:51;;;;;;;;;;;;;;;31.51;83.65;99372.41;4905368;29;19927;-73
2023/08/25 10:02:18;;;;;;;;;;;;;;;31.52;83.08;99366.63;4903435;29;19928;-74
2023/08/25 10:04:43;;;;;;;;;;;;;;;31.52;80.64;99366.63;4906150;29;19931;-73
2023/08/25 10:07:10;;;;;;;;;;;;;;;31.54;80.23;99358.19;4907929;29;19923;-73
2023/08/25 10:09:35;;;;;;;;;;;;;;;31.58;79.98;99361.97;4907448;29;20400;-74
2023/08/25 10:12:02;;;;;;;;;;;;;;;31.64;79.03;99360.84;4908132;29;19927;-73
2023/08/25 10:14:30;;;;;;;;;;;;;;;31.68;79.34;99356.47;4916286;29;19923;-72
2023/08/25 10:16:58;;;;;;;;;;;;;;;31.73;79.62;99359.16;4916046;29;19970;-74
2023/08/25 10:19:26;;;;;;;;;;;;;;;31.79;79.12;99355.28;4915877;29;19923;-73
2023/08/25 10:21:52;;;;;;;;;;;;;;;31.83;78.02;99350.06;4915772;29;20273;-73
2023/08/25 10:24:19;;;;;;;;;;;;;;;31.85;77.70;99343.22;4916069;29;19965;-73
2023/08/25 10:26:45;;;;;;;;;;;;;;;31.89;77.76;99344.28;4916031;29;20277;-74
2023/08/25 10:29:13;;;;;;;;;;;;;;;31.94;76.78;99338.75;4916093;29;19927;-73
2023/08/25 10:31:49;;;;;;;;;;;;;;;31.99;76.82;99344.16;4918522;29;19923;-73
2023/08/25 10:34:33;;;;;;;;;;;;;;;32.06;75.58;99332.91;4915848;29;20014;-73
2023/08/25 10:37:10;;;;;;;;;;;;;;;32.09;74.25;99338.63;4915208;29;19962;-73
2023/08/25 10:39:54;;;;;;;;;;;;;;;32.12;73.96;99331.75;4915617;29;19929;-73
2023/08/25 10:42:22;;;;;;;;;;;;;;;32.15;73.58;99335.88;4930255;29;20269;-73
2023/08/25 10:44:51;;;;;;;;;;;;;;;32.17;73.34;99331.72;4915656;29;19966;-73
2023/08/25 10:47:18;;;;;;;;;;;;;;;32.22;71.91;99330.88;4914805;29;20365;-74
2023/08/25 10:49:44;;;;;;;;;;;;;;;32.24;71.53;99320.47;4915033;29;19927;-73
2023/08/25 10:52:16;;;;;;;;;;;;;;;32.37;71.11;99322.50;4915460;29;20388;-73
2023/08/25 10:54:44;;;;;;;;;;;;;;;32.42;72.52;99327.91;4914977;29;19927;-74
2023/08/25 10:57:24;;;;;;;;;;;;;;;32.47;72.05;99323.19;4915379;29;19934;-75
2023/08/25 10:59:53;;;;;;;;;;;;;;;32.52;71.99;99320.41;4914893;29;19945;-73
2023/08/25 11:02:37;;;;;;;;;;;;;;;32.55;72.06;99310.81;4911457;29;19923;-73
2023/08/25 11:05:21;;;;;;;;;;;;;;;32.59;72.27;99314.56;4914830;29;19954;-74
2023/08/25 11:07:46;;;;;;;;;;;;;;;32.64;70.56;99306.31;4914876;29;19987;-73
2023/08/25 11:10:12;;;;;;;;;;;;;;;32.69;71.62;99309.03;4915131;29;20059;-73
2023/08/25 11:12:38;;;;;;;;;;;;;;;32.77;71.92;99305.63;4910488;29;19923;-74
2023/08/25 11:15:07;;;;;;;;;;;;;;;32.79;72.30;99302.59;4905279;29;20066;-73
2023/08/25 11:17:32;;;;;;;;;;;;;;;32.85;70.63;99296.78;4907380;29;19923;-74
2023/08/25 11:19:58;;;;;;;;;;;;;;;32.91;71.33;99301.06;4904489;29;20144;-74
2023/08/25 11:22:23;;;;;;;;;;;;;;;32.93;70.75;99287.91;4906544;29;19927;-75
2023/08/25 11:24:48;;;;;;;;;;;;;;;33.02;70.99;99284.50;4903747;29;19928;-73
2023/08/25 11:27:16;;;;;;;;;;;;;;;33.06;69.52;99285.53;4906825;29;19982;-73
2023/08/25 11:29:44;;;;;;;;;;;;;;;33.10;70.29;99287.41;4904210;29;20031;-73
2023/08/25 11:32:11;;;;;;;;;;;;;;;33.13;70.51;99275.84;4906148;29;19924;-73
2023/08/25 11:34:36;;;;;;;;;;;;;;;33.16;70.72;99263.53;4904662;29;20422;-72
2023/08/25 11:37:02;;;;;;;;;;;;;;;33.27;68.63;99256.81;4903350;29;19931;-73
2023/08/25 11:39:28;;;;;;;;;;;;;;;33.36;68.79;99268.69;4906432;29;19967;-73
2023/08/25 11:41:54;;;;;;;;;;;;;;;33.42;68.33;99259.28;4906051;29;19977;-73
2023/08/25 11:44:19;;;;;;;;;;;;;;;33.48;68.55;99255.34;4903346;29;20429;-73
2023/08/25 11:46:45;;;;;;;;;;;;;;;33.59;65.79;99255.97;4905901;29;20018;-74
2023/08/25 11:49:10;;;;;;;;;;;;;;;33.66;65.33;99251.75;4904099;29;20340;-74
2023/08/25 11:51:36;;;;;;;;;;;;;;;33.75;65.73;99248.34;4904002;29;19927;-73
2023/08/25 11:54:02;;;;;;;;;;;;;;;33.83;65.86;99244.88;4905549;29;19958;-73
2023/08/25 11:56:27;;;;;;;;;;;;;;;33.94;66.69;99240.84;4905603;29;19934;-74
2023/08/25 11:58:53;;;;;;;;;;;;;;;34.11;65.02;99236.38;4902731;29;19923;-74
2023/08/25 12:01:18;;;;;;;;;;;;;;;34.21;64.76;99238.16;4906619;29;19923;-75
2023/08/25 12:03:44;;;;;;;;;;;;;;;34.35;63.68;99238.09;4903318;29;19994;-73
2023/08/25 12:06:10;;;;;;;;;;;;;;;34.47;63.54;99227.44;4905487;29;19924;-72
2023/08/25 12:08:36;;;;;;;;;;;;;;;34.66;62.20;99230.84;4904132;29;19923;-73
2023/08/25 12:11:02;;;;;;;;;;;;;;;34.83;60.00;99222.81;4903968;29;19928;-74
2023/08/25 12:13:31;;;;;;;;;;;;;;;35.03;60.55;99224.25;4913030;29;19930;-73
2023/08/25 12:15:57;;;;;;;;;;;;;;;35.31;58.92;99214.81;4915700;29;19982;-73
2023/08/25 12:18:23;;;;;;;;;;;;;;;35.42;57.32;99206.28;4915834;29;19930;-72
2023/08/25 12:20:49;;;;;;;;;;;;;;;35.58;57.24;99207.53;4915263;29;20022;-72
2023/08/25 12:23:15;;;;;;;;;;;;;;;35.76;57.32;99209.22;4914096;29;19923;-73
2023/08/25 12:25:42;;;;;;;;;;;;;;;35.98;55.97;99203.69;4928932;29;19923;-72
2023/08/25 12:28:07;;;;;;;;;;;;;;;36.16;54.45;99196.34;4913862;29;19923;-72
2023/08/25 12:30:33;;;;;;;;;;;;;;;36.27;53.25;99191.34;4913816;29;19930;-72
2023/08/25 12:32:58;;;;;;;;;;;;;;;36.22;51.85;99186.81;4913550;29;19923;-70
2023/08/25 12:35:23;;;;;;;;;;;;;;;36.29;51.98;99183.59;4913866;29;19923;-72
2023/08/25 12:37:49;;;;;;;;;;;;;;;36.44;52.23;99174.88;4914029;29;19975;-72